Terminal Aerodrome Forecast
Issued by NWS Wilmington, OH

Current Version | Previous Version | Graphics & Text | Print | Product List | Glossary On
Versions: 1 2 3 4 5 6 7 8 9 10 11 12 13 14 15 16 17 18 19 20 21 22 23 24 25 26 27
000
FTUS41 KILN 311120
TAFCMH
TAF
KCMH 311120Z 3112/0112 00000KT 6SM HZ SKC
     FM311400 24005KT P6SM SCT025 SCT100
     FM311800 24006KT P6SM VCSH BKN040
     FM010100 00000KT P6SM SCT035
     FM010600 00000KT 4SM BR SKC
      TEMPO 0109/0112 2SM BR SCT005=

USA.gov is the U.S. government's official web portal to all federal, state and local government web resources and services.